createdAt,value
2023-03-27T00:00:33.643Z,14.14
2023-03-27T00:01:36.854Z,14.13
2023-03-27T00:02:38.825Z,14.13
2023-03-27T00:03:40.836Z,14.12
2023-03-27T00:04:42.854Z,14.12
2023-03-27T00:05:44.658Z,14.13
2023-03-27T00:06:46.459Z,14.11
2023-03-27T00:07:48.303Z,14.12
2023-03-27T00:08:50.105Z,14.11
2023-03-27T00:09:51.916Z,14.11
2023-03-27T00:10:53.948Z,14.11
2023-03-27T00:11:55.936Z,14.11
2023-03-27T00:12:57.689Z,14.12
2023-03-27T00:13:59.496Z,14.11
2023-03-27T00:15:01.305Z,14.10
2023-03-27T00:16:03.103Z,14.09
2023-03-27T00:17:04.968Z,14.09
2023-03-27T00:18:06.877Z,14.08
2023-03-27T00:19:08.664Z,14.07
2023-03-27T00:20:11.178Z,14.08
2023-03-27T00:21:12.976Z,14.07
2023-03-27T00:22:14.778Z,14.08
2023-03-27T00:23:16.626Z,14.08
2023-03-27T00:24:18.499Z,14.08
2023-03-27T00:25:20.293Z,14.07
2023-03-27T00:26:22.130Z,14.07
2023-03-27T00:27:24.017Z,14.07
2023-03-27T00:28:25.857Z,14.08
2023-03-27T00:29:27.668Z,14.07
2023-03-27T00:30:29.483Z,14.07
2023-03-27T00:31:31.322Z,14.07
2023-03-27T00:32:33.097Z,14.07
2023-03-27T00:33:34.940Z,14.07
2023-03-27T00:34:36.739Z,14.07
2023-03-27T00:35:38.602Z,14.07
2023-03-27T00:36:40.570Z,14.06
2023-03-27T00:37:42.382Z,14.06
2023-03-27T00:38:44.219Z,14.07
2023-03-27T00:39:46.048Z,14.06
2023-03-27T00:40:48.002Z,14.07
2023-03-27T00:41:49.722Z,14.06
2023-03-27T00:42:51.517Z,14.07
2023-03-27T00:43:53.394Z,14.07
2023-03-27T00:44:55.161Z,14.08
2023-03-27T00:45:56.993Z,14.09
2023-03-27T00:46:58.777Z,14.10
2023-03-27T00:48:00.635Z,14.08
2023-03-27T00:49:05.389Z,14.08
2023-03-27T00:50:07.311Z,14.08
2023-03-27T00:51:09.111Z,14.08
2023-03-27T00:52:10.902Z,14.09
2023-03-27T00:53:12.700Z,14.10
2023-03-27T00:54:14.555Z,14.09
2023-03-27T00:55:16.356Z,14.12
2023-03-27T00:56:18.655Z,14.13
2023-03-27T00:57:20.458Z,14.14
2023-03-27T00:58:22.266Z,14.14
2023-03-27T00:59:24.111Z,14.15
2023-03-27T01:00:25.908Z,14.17
2023-03-27T01:01:27.769Z,14.17
2023-03-27T01:02:29.746Z,14.17
2023-03-27T01:03:31.710Z,14.18
2023-03-27T01:04:33.556Z,14.18
2023-03-27T01:05:35.360Z,14.17
2023-03-27T01:06:37.166Z,14.18
2023-03-27T01:07:38.953Z,14.20
2023-03-27T01:08:40.652Z,14.20
2023-03-27T01:09:42.517Z,14.20
2023-03-27T01:10:44.315Z,14.20
2023-03-27T01:11:46.114Z,14.20
2023-03-27T01:12:47.904Z,14.21
2023-03-27T01:13:49.706Z,14.22
2023-03-27T01:14:51.563Z,14.21
2023-03-27T01:15:53.389Z,14.20
2023-03-27T01:16:55.160Z,14.20
2023-03-27T01:17:57.030Z,14.19
2023-03-27T01:18:58.889Z,14.18
2023-03-27T01:20:00.740Z,14.17
2023-03-27T01:21:02.545Z,14.15
2023-03-27T01:22:04.325Z,14.14
2023-03-27T01:23:06.127Z,14.13
2023-03-27T01:24:07.937Z,14.14
2023-03-27T01:25:09.794Z,14.13
2023-03-27T01:26:12.093Z,14.14
2023-03-27T01:27:13.931Z,14.14
2023-03-27T01:28:15.691Z,14.14
2023-03-27T01:29:17.493Z,14.15
2023-03-27T01:30:19.451Z,14.14
2023-03-27T01:31:21.311Z,14.14
2023-03-27T01:32:23.094Z,14.12
2023-03-27T01:33:25.094Z,14.13
2023-03-27T01:34:26.894Z,14.12
2023-03-27T01:35:28.768Z,14.11
2023-03-27T01:36:30.592Z,14.11
2023-03-27T01:37:32.399Z,14.09
2023-03-27T01:38:34.701Z,14.12
2023-03-27T01:39:36.494Z,14.12
2023-03-27T01:40:38.342Z,14.11
2023-03-27T01:41:40.144Z,14.12
2023-03-27T01:42:41.958Z,14.12
2023-03-27T01:43:43.652Z,14.11
2023-03-27T01:44:45.454Z,14.13
2023-03-27T01:45:47.301Z,14.13
2023-03-27T01:46:49.249Z,14.14
2023-03-27T01:47:51.181Z,14.16
2023-03-27T01:48:52.989Z,14.16
2023-03-27T01:49:54.812Z,14.17
2023-03-27T01:50:56.837Z,14.17
2023-03-27T01:51:58.663Z,14.14
2023-03-27T01:53:00.458Z,14.14
2023-03-27T01:54:02.292Z,14.20
2023-03-27T01:55:04.077Z,14.20
2023-03-27T01:56:05.925Z,14.21
2023-03-27T01:57:07.755Z,14.21
2023-03-27T01:58:09.614Z,14.22
2023-03-27T01:59:11.429Z,14.21
2023-03-27T02:00:17.989Z,14.22
2023-03-27T02:01:17.318Z,14.21
2023-03-27T02:02:19.087Z,14.22
2023-03-27T02:03:20.884Z,14.23
2023-03-27T02:04:22.846Z,14.22
2023-03-27T02:05:24.704Z,14.22
2023-03-27T02:06:26.534Z,14.23
2023-03-27T02:07:28.338Z,14.24
2023-03-27T02:08:30.131Z,14.23
2023-03-27T02:09:31.939Z,14.23
2023-03-27T02:10:33.729Z,14.25
2023-03-27T02:11:35.602Z,14.24
2023-03-27T02:12:37.411Z,14.25
2023-03-27T02:13:39.210Z,14.26
2023-03-27T02:14:41.007Z,14.25
2023-03-27T02:15:42.817Z,14.26
2023-03-27T02:16:44.805Z,14.26
2023-03-27T02:17:46.583Z,14.26
2023-03-27T02:18:48.380Z,14.26
2023-03-27T02:19:50.193Z,14.26
2023-03-27T02:20:52.096Z,14.27
2023-03-27T02:21:53.948Z,14.26
2023-03-27T02:22:55.749Z,14.27
2023-03-27T02:23:57.548Z,14.26
2023-03-27T02:24:59.357Z,14.27
2023-03-27T02:26:01.168Z,14.27
2023-03-27T02:27:03.024Z,14.27
2023-03-27T02:28:04.820Z,14.27
2023-03-27T02:29:06.626Z,14.26
2023-03-27T02:30:08.540Z,14.25
2023-03-27T02:31:32.386Z,14.25
2023-03-27T02:32:14.026Z,14.24
2023-03-27T02:33:15.845Z,14.24
2023-03-27T02:34:17.725Z,14.24
2023-03-27T02:35:19.529Z,14.24
2023-03-27T02:36:21.327Z,14.25
2023-03-27T02:37:23.133Z,14.26
2023-03-27T02:38:26.734Z,14.25
2023-03-27T02:39:28.532Z,14.27
2023-03-27T02:40:30.440Z,14.25
2023-03-27T02:41:32.244Z,14.25
2023-03-27T02:42:34.096Z,14.25
2023-03-27T02:43:35.886Z,14.25
2023-03-27T02:44:46.529Z,14.24
2023-03-27T02:45:41.343Z,14.26
2023-03-27T02:46:43.518Z,14.26
2023-03-27T02:47:45.441Z,14.26
2023-03-27T02:48:47.296Z,14.26
2023-03-27T02:49:49.118Z,14.26
2023-03-27T02:50:50.906Z,14.26
2023-03-27T02:51:52.699Z,14.26
2023-03-27T02:52:54.567Z,14.26
2023-03-27T02:53:56.366Z,14.26
2023-03-27T02:54:58.159Z,14.26
2023-03-27T02:55:59.956Z,14.25
2023-03-27T02:57:01.787Z,14.25
2023-03-27T02:58:03.643Z,14.26
2023-03-27T02:59:05.437Z,14.25
2023-03-27T03:00:08.035Z,14.26
2023-03-27T03:01:09.868Z,14.26
2023-03-27T03:02:11.647Z,14.26
2023-03-27T03:03:13.508Z,14.26
2023-03-27T03:04:15.354Z,14.26
2023-03-27T03:05:17.142Z,14.27
2023-03-27T03:06:18.949Z,14.26
2023-03-27T03:07:20.748Z,14.27
2023-03-27T03:08:22.614Z,14.26
2023-03-27T03:09:24.401Z,14.27
2023-03-27T03:10:26.302Z,14.27
2023-03-27T03:11:28.098Z,14.28
2023-03-27T03:12:29.933Z,14.28
2023-03-27T03:13:31.790Z,14.28
2023-03-27T03:14:33.580Z,14.27
2023-03-27T03:15:35.383Z,14.24
2023-03-27T03:16:37.194Z,14.23
2023-03-27T03:17:39.020Z,14.22
2023-03-27T03:18:40.850Z,14.22
2023-03-27T03:19:42.644Z,14.22
2023-03-27T03:20:44.550Z,14.22
2023-03-27T03:21:46.358Z,14.20
2023-03-27T03:22:48.161Z,14.19
2023-03-27T03:23:57.551Z,14.18
2023-03-27T03:24:53.621Z,14.18
2023-03-27T03:25:55.416Z,14.17
2023-03-27T03:26:57.216Z,14.18
2023-03-27T03:27:59.061Z,14.18
2023-03-27T03:29:01.732Z,14.16
2023-03-27T03:30:03.694Z,14.16
2023-03-27T03:31:05.435Z,14.14
2023-03-27T03:32:07.190Z,14.13
2023-03-27T03:33:09.028Z,14.14
2023-03-27T03:34:10.865Z,14.12
2023-03-27T03:35:12.664Z,14.12
2023-03-27T03:36:14.759Z,14.12
2023-03-27T03:37:16.570Z,14.12
2023-03-27T03:38:18.359Z,14.13
2023-03-27T03:39:20.183Z,14.14
2023-03-27T03:40:21.976Z,14.14
2023-03-27T03:41:23.781Z,14.15
2023-03-27T03:42:25.592Z,14.15
2023-03-27T03:43:27.396Z,14.15
2023-03-27T03:44:29.236Z,14.15
2023-03-27T03:45:31.033Z,14.16
2023-03-27T03:46:32.857Z,14.17
2023-03-27T03:47:34.666Z,14.17
2023-03-27T03:48:36.446Z,14.17
2023-03-27T03:49:38.301Z,14.18
2023-03-27T03:50:40.099Z,14.18
2023-03-27T03:51:41.903Z,14.20
2023-03-27T03:52:43.813Z,14.20
2023-03-27T03:53:45.600Z,14.20
2023-03-27T03:54:47.455Z,14.20
2023-03-27T03:55:49.258Z,14.16
2023-03-27T03:56:51.078Z,14.17
2023-03-27T03:57:52.949Z,14.18
2023-03-27T03:58:54.750Z,14.19
2023-03-27T03:59:56.603Z,14.18
2023-03-27T04:00:58.508Z,14.17
2023-03-27T04:02:00.325Z,14.17
2023-03-27T04:03:02.165Z,14.15
2023-03-27T04:04:04.014Z,14.16
2023-03-27T04:05:08.836Z,14.16
2023-03-27T04:06:11.200Z,14.17
2023-03-27T04:07:13.003Z,14.15
2023-03-27T04:08:14.807Z,14.13
2023-03-27T04:09:16.770Z,14.14
2023-03-27T04:10:18.883Z,14.12
2023-03-27T04:11:20.734Z,14.11
2023-03-27T04:12:22.526Z,14.12
2023-03-27T04:13:24.326Z,14.11
2023-03-27T04:14:26.142Z,14.12
2023-03-27T04:15:27.974Z,14.09
2023-03-27T04:16:29.836Z,14.08
2023-03-27T04:17:31.744Z,14.08
2023-03-27T04:18:33.718Z,14.08
2023-03-27T04:19:35.495Z,14.07
2023-03-27T04:20:37.448Z,14.07
2023-03-27T04:21:39.244Z,14.07
2023-03-27T04:22:41.057Z,14.06
2023-03-27T04:23:42.890Z,14.05
2023-03-27T04:24:44.670Z,14.06
2023-03-27T04:25:46.501Z,14.05
2023-03-27T04:26:48.281Z,14.03
2023-03-27T04:27:50.080Z,14.03
2023-03-27T04:28:51.900Z,14.03
2023-03-27T04:29:53.688Z,14.03
2023-03-27T04:30:55.879Z,14.02
2023-03-27T04:31:57.763Z,14.03
2023-03-27T04:32:59.591Z,14.03
2023-03-27T04:34:01.259Z,14.03
2023-03-27T04:35:03.070Z,14.03
2023-03-27T04:36:07.192Z,14.03
2023-03-27T04:37:08.537Z,14.04
2023-03-27T04:38:10.349Z,14.04
2023-03-27T04:39:12.157Z,14.04
2023-03-27T04:40:14.251Z,14.02
2023-03-27T04:41:16.125Z,14.03
2023-03-27T04:42:17.915Z,14.02
2023-03-27T04:43:19.712Z,14.01
2023-03-27T04:44:21.513Z,14.01
2023-03-27T04:45:23.320Z,14.00
2023-03-27T04:46:25.227Z,14.00
2023-03-27T04:47:27.039Z,14.00
2023-03-27T04:48:28.832Z,13.98
2023-03-27T04:49:30.660Z,13.99
2023-03-27T04:50:32.562Z,14.00
2023-03-27T04:51:34.408Z,13.99
2023-03-27T04:52:36.203Z,14.01
2023-03-27T04:53:38.152Z,14.02
2023-03-27T04:54:39.914Z,14.04
2023-03-27T04:55:41.701Z,14.03
2023-03-27T04:56:43.568Z,14.03
2023-03-27T04:57:45.343Z,14.01
2023-03-27T04:58:47.152Z,13.98
2023-03-27T04:59:48.962Z,13.99
2023-03-27T05:00:50.907Z,13.98
2023-03-27T05:01:52.899Z,13.98
2023-03-27T05:02:54.747Z,13.99
2023-03-27T05:03:56.597Z,13.99
2023-03-27T05:04:58.427Z,13.97
2023-03-27T05:06:00.204Z,13.97
2023-03-27T05:07:05.118Z,13.98
2023-03-27T05:08:06.935Z,13.98
2023-03-27T05:09:08.733Z,13.98
2023-03-27T05:10:10.533Z,13.98
2023-03-27T05:11:12.338Z,13.97
2023-03-27T05:12:14.190Z,13.97
2023-03-27T05:13:15.997Z,13.96
2023-03-27T05:14:17.799Z,13.97
2023-03-27T05:15:19.594Z,13.96
2023-03-27T05:16:21.468Z,13.95
2023-03-27T05:17:23.432Z,13.95
2023-03-27T05:18:25.269Z,13.95
2023-03-27T05:19:27.070Z,13.95
2023-03-27T05:20:28.888Z,13.95
2023-03-27T05:21:30.707Z,13.97
2023-03-27T05:22:32.540Z,13.99
2023-03-27T05:23:34.327Z,13.97
2023-03-27T05:24:36.140Z,13.98
2023-03-27T05:25:37.947Z,14.00
2023-03-27T05:26:39.769Z,14.01
2023-03-27T05:27:41.603Z,14.02
2023-03-27T05:28:43.409Z,14.01
2023-03-27T05:29:47.695Z,14.02
2023-03-27T05:30:48.974Z,14.01
2023-03-27T05:31:50.765Z,14.02
2023-03-27T05:32:52.748Z,14.00
2023-03-27T05:33:54.615Z,14.00
2023-03-27T05:34:56.327Z,14.00
2023-03-27T05:35:58.684Z,14.01
2023-03-27T05:37:00.557Z,14.02
2023-03-27T05:38:02.422Z,14.02
2023-03-27T05:39:04.115Z,14.03
2023-03-27T05:40:06.217Z,14.05
2023-03-27T05:41:08.026Z,14.06
2023-03-27T05:42:09.838Z,14.07
2023-03-27T05:43:11.693Z,14.05
2023-03-27T05:44:13.490Z,14.04
2023-03-27T05:45:15.293Z,14.05
2023-03-27T05:46:20.954Z,14.06
2023-03-27T05:47:20.822Z,14.04
2023-03-27T05:48:22.664Z,14.06
2023-03-27T05:49:24.455Z,14.08
2023-03-27T05:50:26.279Z,14.08
2023-03-27T05:51:28.377Z,14.09
2023-03-27T05:52:30.171Z,14.10
2023-03-27T05:53:32.018Z,14.12
2023-03-27T05:54:33.820Z,14.13
2023-03-27T05:55:35.630Z,14.14
2023-03-27T05:56:37.484Z,14.13
2023-03-27T05:57:39.244Z,14.15
2023-03-27T05:58:41.082Z,14.16
2023-03-27T05:59:42.885Z,14.16
2023-03-27T06:00:44.704Z,14.17
2023-03-27T06:01:46.511Z,14.18
2023-03-27T06:02:48.394Z,14.20
2023-03-27T06:03:50.525Z,14.20
2023-03-27T06:04:52.490Z,14.21
2023-03-27T06:05:54.296Z,14.21
2023-03-27T06:06:56.109Z,14.22
2023-03-27T06:07:57.915Z,14.24
2023-03-27T06:08:59.778Z,14.25
2023-03-27T06:10:01.573Z,14.26
2023-03-27T06:11:03.371Z,14.29
2023-03-27T06:12:05.174Z,14.30
2023-03-27T06:13:07.124Z,14.32
2023-03-27T06:14:08.943Z,14.33
2023-03-27T06:15:10.759Z,14.34
2023-03-27T06:16:12.675Z,14.34
2023-03-27T06:17:14.475Z,14.36
2023-03-27T06:18:16.296Z,14.38
2023-03-27T06:19:18.148Z,14.39
2023-03-27T06:20:19.957Z,14.40
2023-03-27T06:21:22.329Z,14.42
2023-03-27T06:22:24.405Z,14.43
2023-03-27T06:23:26.227Z,14.43
2023-03-27T06:24:28.072Z,14.45
2023-03-27T06:25:29.876Z,14.46
2023-03-27T06:26:31.897Z,14.47
2023-03-27T06:27:33.693Z,14.49
2023-03-27T06:28:35.502Z,14.50
2023-03-27T06:29:37.427Z,14.51
2023-03-27T06:30:39.368Z,14.51
2023-03-27T06:31:41.361Z,14.53
2023-03-27T06:32:43.190Z,14.54
2023-03-27T06:33:44.983Z,14.56
2023-03-27T06:34:46.841Z,14.58
2023-03-27T06:35:53.085Z,14.58
2023-03-27T06:36:52.280Z,14.58
2023-03-27T06:37:54.078Z,14.59
2023-03-27T06:38:55.882Z,14.56
2023-03-27T06:39:57.730Z,14.56
2023-03-27T06:40:59.568Z,14.56
2023-03-27T06:42:01.337Z,14.56
2023-03-27T06:43:03.153Z,14.58
2023-03-27T06:44:05.097Z,14.59
2023-03-27T06:45:06.946Z,14.59
2023-03-27T06:46:08.784Z,14.60
2023-03-27T06:47:10.706Z,14.61
2023-03-27T06:48:20.614Z,14.62
2023-03-27T06:49:16.189Z,14.63
2023-03-27T06:50:18.568Z,14.64
2023-03-27T06:51:20.372Z,14.65
2023-03-27T06:52:22.175Z,14.65
2023-03-27T06:53:27.978Z,14.65
2023-03-27T06:54:27.598Z,14.67
2023-03-27T06:55:29.470Z,14.67
2023-03-27T06:56:31.368Z,14.68
2023-03-27T06:57:33.164Z,14.70
2023-03-27T06:58:34.966Z,14.71
2023-03-27T06:59:36.768Z,14.71
2023-03-27T07:00:38.658Z,14.72
2023-03-27T07:01:40.470Z,14.73
2023-03-27T07:02:42.426Z,14.73
2023-03-27T07:03:44.284Z,14.74
2023-03-27T07:04:54.212Z,14.75
2023-03-27T07:05:49.793Z,14.76
2023-03-27T07:06:51.683Z,14.76
2023-03-27T07:07:53.475Z,14.78
2023-03-27T07:08:55.297Z,14.78
2023-03-27T07:09:57.102Z,14.79
2023-03-27T07:11:10.872Z,14.79
2023-03-27T07:12:02.597Z,14.78
2023-03-27T07:13:04.427Z,14.78
2023-03-27T07:14:06.332Z,14.78
2023-03-27T07:15:08.141Z,14.79
2023-03-27T07:16:10.853Z,14.80
2023-03-27T07:17:12.652Z,14.81
2023-03-27T07:18:14.465Z,14.84
2023-03-27T07:19:16.241Z,14.84
2023-03-27T07:20:20.883Z,14.84
2023-03-27T07:21:22.807Z,14.88
2023-03-27T07:22:24.774Z,14.89
2023-03-27T07:23:26.578Z,14.90
2023-03-27T07:24:28.421Z,14.92
2023-03-27T07:25:30.225Z,14.92
2023-03-27T07:26:32.375Z,14.95
2023-03-27T07:27:34.278Z,14.95
2023-03-27T07:28:36.112Z,14.96
2023-03-27T07:29:37.898Z,14.97
2023-03-27T07:30:39.807Z,14.99
2023-03-27T07:31:55.823Z,15.01
2023-03-27T07:32:45.403Z,15.02
2023-03-27T07:33:47.406Z,15.04
2023-03-27T07:34:49.176Z,15.06
2023-03-27T07:35:51.066Z,15.08
2023-03-27T07:36:52.952Z,15.11
2023-03-27T07:37:54.775Z,15.13
2023-03-27T07:38:56.595Z,15.16
2023-03-27T07:39:58.384Z,15.16
2023-03-27T07:41:00.301Z,15.17
2023-03-27T07:42:03.375Z,15.18
2023-03-27T07:43:05.176Z,15.19
2023-03-27T07:44:06.996Z,15.19
2023-03-27T07:45:08.789Z,15.22
2023-03-27T07:46:11.268Z,15.23
2023-03-27T07:47:13.071Z,15.25
2023-03-27T07:48:14.899Z,15.25
2023-03-27T07:49:16.679Z,15.26
2023-03-27T07:50:18.584Z,15.28
2023-03-27T07:51:20.401Z,15.31
2023-03-27T07:52:22.254Z,15.36
2023-03-27T07:53:33.975Z,15.37
2023-03-27T07:54:27.673Z,15.40
2023-03-27T07:55:29.530Z,15.44
2023-03-27T07:56:31.306Z,15.47
2023-03-27T07:57:37.196Z,15.50
2023-03-27T07:58:36.786Z,15.54
2023-03-27T07:59:38.559Z,15.55
2023-03-27T08:00:40.366Z,15.56
2023-03-27T08:01:42.182Z,15.58
2023-03-27T08:02:44.043Z,15.60
2023-03-27T08:03:45.932Z,15.60
2023-03-27T08:04:47.915Z,15.60
2023-03-27T08:05:49.756Z,15.60
2023-03-27T08:06:51.576Z,15.60
2023-03-27T08:07:53.471Z,15.62
2023-03-27T08:08:55.311Z,15.64
2023-03-27T08:09:57.099Z,15.66
2023-03-27T08:10:58.918Z,15.70
2023-03-27T08:12:00.718Z,15.72
2023-03-27T08:13:02.593Z,15.75
2023-03-27T08:14:04.379Z,15.79
2023-03-27T08:15:06.196Z,15.82
2023-03-27T08:16:09.123Z,15.85
2023-03-27T08:17:16.281Z,15.88
2023-03-27T08:18:14.645Z,15.89
2023-03-27T08:19:16.512Z,15.89
2023-03-27T08:20:18.426Z,15.91
2023-03-27T08:21:20.258Z,15.92
2023-03-27T08:22:22.056Z,15.91
2023-03-27T08:23:23.917Z,15.92
2023-03-27T08:24:25.738Z,15.96
2023-03-27T08:25:27.575Z,15.99
2023-03-27T08:26:29.601Z,16.02
2023-03-27T08:27:31.387Z,16.05
2023-03-27T08:28:33.135Z,16.07
2023-03-27T08:29:34.962Z,16.07
2023-03-27T08:30:36.883Z,16.07
2023-03-27T08:31:38.695Z,16.08
2023-03-27T08:32:40.521Z,16.11
2023-03-27T08:33:42.423Z,16.15
2023-03-27T08:34:44.229Z,16.18
2023-03-27T08:35:46.066Z,16.22
2023-03-27T08:36:47.878Z,16.26
2023-03-27T08:37:49.703Z,16.29
2023-03-27T08:38:51.547Z,16.32
2023-03-27T08:39:53.333Z,16.36
2023-03-27T08:40:55.240Z,16.37
2023-03-27T08:41:57.023Z,16.35
2023-03-27T08:42:58.848Z,16.37
2023-03-27T08:44:00.692Z,16.38
2023-03-27T08:45:02.521Z,16.38
2023-03-27T08:46:04.482Z,16.39
2023-03-27T08:47:06.244Z,16.39
2023-03-27T08:48:08.100Z,16.41
2023-03-27T08:49:10.034Z,16.42
2023-03-27T08:50:12.283Z,16.45
2023-03-27T08:51:14.077Z,16.46
2023-03-27T08:52:15.884Z,16.47
2023-03-27T08:53:17.720Z,16.47
2023-03-27T08:54:19.467Z,16.47
2023-03-27T08:55:21.287Z,16.48
2023-03-27T08:56:23.176Z,16.50
2023-03-27T08:57:24.988Z,16.51
2023-03-27T08:58:26.805Z,16.50
2023-03-27T08:59:28.666Z,16.48
2023-03-27T09:00:30.471Z,16.46
2023-03-27T09:01:32.346Z,16.45
2023-03-27T09:02:34.179Z,16.45
2023-03-27T09:03:36.074Z,16.50
2023-03-27T09:04:37.964Z,16.52
2023-03-27T09:05:39.769Z,16.55
2023-03-27T09:06:41.574Z,16.58
2023-03-27T09:07:43.392Z,16.60
2023-03-27T09:08:45.234Z,16.63
2023-03-27T09:09:47.070Z,16.64
2023-03-27T09:10:48.871Z,16.68
2023-03-27T09:11:50.785Z,16.71
2023-03-27T09:12:52.910Z,16.72
2023-03-27T09:13:54.913Z,16.73
2023-03-27T09:14:56.771Z,16.74
2023-03-27T09:15:58.945Z,16.76
2023-03-27T09:17:02.125Z,16.77
2023-03-27T09:18:03.991Z,16.79
2023-03-27T09:19:05.838Z,16.81
2023-03-27T09:20:08.388Z,16.81
2023-03-27T09:21:10.188Z,16.83
2023-03-27T09:22:12.010Z,16.86
2023-03-27T09:23:13.814Z,16.88
2023-03-27T09:24:15.694Z,16.90
2023-03-27T09:25:17.532Z,16.92
2023-03-27T09:26:19.392Z,16.94
2023-03-27T09:27:21.181Z,16.95
2023-03-27T09:28:22.967Z,16.96
2023-03-27T09:29:24.780Z,16.99
2023-03-27T09:30:26.625Z,17.00
2023-03-27T09:31:28.477Z,17.03
2023-03-27T09:32:33.998Z,17.06
2023-03-27T09:33:33.874Z,17.08
2023-03-27T09:34:35.651Z,17.10
2023-03-27T09:35:37.487Z,17.11
2023-03-27T09:36:39.298Z,17.12
2023-03-27T09:37:41.083Z,17.13
2023-03-27T09:38:42.884Z,17.15
2023-03-27T09:39:44.682Z,17.19
2023-03-27T09:40:46.750Z,17.18
2023-03-27T09:41:48.544Z,17.19
2023-03-27T09:42:50.361Z,17.22
2023-03-27T09:43:52.205Z,17.21
2023-03-27T09:44:53.996Z,17.23
2023-03-27T09:45:56.005Z,17.24
2023-03-27T09:46:58.038Z,17.23
2023-03-27T09:47:59.943Z,17.22
2023-03-27T09:49:02.011Z,17.21
2023-03-27T09:50:04.115Z,17.21
2023-03-27T09:51:05.971Z,17.23
2023-03-27T09:52:07.785Z,17.22
2023-03-27T09:53:09.582Z,17.21
2023-03-27T09:54:11.388Z,17.22
2023-03-27T09:55:13.215Z,17.21
2023-03-27T09:56:15.070Z,17.21
2023-03-27T09:57:16.949Z,17.21
2023-03-27T09:58:18.825Z,17.20
2023-03-27T09:59:20.645Z,17.19
2023-03-27T10:00:22.460Z,17.20
2023-03-27T10:01:24.321Z,17.18
2023-03-27T10:02:26.241Z,17.18
2023-03-27T10:03:28.081Z,17.17
2023-03-27T10:04:29.920Z,17.18
2023-03-27T10:05:31.714Z,17.17
2023-03-27T10:06:33.586Z,17.17
2023-03-27T10:07:35.386Z,17.16
2023-03-27T10:08:37.256Z,17.14
2023-03-27T10:09:39.068Z,17.14
2023-03-27T10:10:40.932Z,17.13
2023-03-27T10:11:42.785Z,17.16
2023-03-27T10:12:44.601Z,17.16
2023-03-27T10:13:46.396Z,17.16
2023-03-27T10:14:49.074Z,17.18
2023-03-27T10:15:51.840Z,17.20
2023-03-27T10:16:53.772Z,17.21
2023-03-27T10:17:55.682Z,17.21
2023-03-27T10:18:57.514Z,17.23
2023-03-27T10:19:59.325Z,17.23
2023-03-27T10:21:01.131Z,17.22
2023-03-27T10:22:03.008Z,17.23
2023-03-27T10:23:04.810Z,17.21
2023-03-27T10:24:06.608Z,17.23
2023-03-27T10:25:08.500Z,17.23
2023-03-27T10:26:10.766Z,17.23
2023-03-27T10:27:12.599Z,17.22
2023-03-27T10:28:14.419Z,17.21
2023-03-27T10:29:16.230Z,17.21
2023-03-27T10:30:18.045Z,17.20
2023-03-27T10:31:19.954Z,17.18
2023-03-27T10:32:21.749Z,17.21
2023-03-27T10:33:23.608Z,17.20
2023-03-27T10:34:25.409Z,17.20
2023-03-27T10:35:27.236Z,17.21
2023-03-27T10:36:29.013Z,17.22
2023-03-27T10:37:30.889Z,17.22
2023-03-27T10:38:32.694Z,17.22
2023-03-27T10:39:34.527Z,17.21
2023-03-27T10:40:36.422Z,17.20
2023-03-27T10:41:38.240Z,17.20
2023-03-27T10:42:40.062Z,17.19
2023-03-27T10:43:41.865Z,17.20
2023-03-27T10:44:43.681Z,17.19
2023-03-27T10:45:45.496Z,17.21
2023-03-27T10:46:47.288Z,17.20
2023-03-27T10:47:49.149Z,17.20
2023-03-27T10:48:50.925Z,17.20
2023-03-27T10:49:52.723Z,17.20
2023-03-27T10:50:54.595Z,17.19
2023-03-27T10:51:56.440Z,17.18
2023-03-27T10:52:58.349Z,17.19
2023-03-27T10:54:00.338Z,17.21
2023-03-27T10:55:02.202Z,17.20
2023-03-27T10:56:04.022Z,17.21
2023-03-27T10:57:05.862Z,17.22
2023-03-27T10:58:07.659Z,17.22
2023-03-27T10:59:09.517Z,17.23
2023-03-27T11:00:11.413Z,17.22
2023-03-27T11:01:13.223Z,17.22
2023-03-27T11:02:15.007Z,17.22
2023-03-27T11:03:16.892Z,17.20
2023-03-27T11:04:18.699Z,17.18
2023-03-27T11:05:20.472Z,17.17
2023-03-27T11:06:22.527Z,17.15
2023-03-27T11:07:24.306Z,17.14
2023-03-27T11:08:26.217Z,17.13
2023-03-27T11:09:27.967Z,17.10
2023-03-27T11:10:29.766Z,17.08
2023-03-27T11:11:31.605Z,17.09
2023-03-27T11:12:33.436Z,17.10
2023-03-27T11:13:35.231Z,17.11
2023-03-27T11:14:37.040Z,17.11
2023-03-27T11:15:38.827Z,17.10
2023-03-27T11:16:40.669Z,17.11
2023-03-27T11:17:42.473Z,17.09
2023-03-27T11:18:44.319Z,17.09
2023-03-27T11:19:46.105Z,17.09
2023-03-27T11:20:47.905Z,17.08
2023-03-27T11:21:49.710Z,17.11
2023-03-27T11:22:51.516Z,17.12
2023-03-27T11:23:53.405Z,17.11
2023-03-27T11:24:55.162Z,17.10
2023-03-27T11:25:56.967Z,17.09
2023-03-27T11:26:58.782Z,17.08
2023-03-27T11:28:00.609Z,17.08
2023-03-27T11:29:02.453Z,17.08
2023-03-27T11:30:04.359Z,17.09
2023-03-27T11:31:12.594Z,17.10
2023-03-27T11:32:09.773Z,17.10
2023-03-27T11:33:11.567Z,17.11
2023-03-27T11:34:13.418Z,17.10
2023-03-27T11:35:17.041Z,17.10
2023-03-27T11:36:18.952Z,17.10
2023-03-27T11:37:20.748Z,17.11
2023-03-27T11:38:22.555Z,17.13
2023-03-27T11:39:24.413Z,17.13
2023-03-27T11:40:26.218Z,17.14
2023-03-27T11:41:28.039Z,17.14
2023-03-27T11:42:29.879Z,17.15
2023-03-27T11:43:31.656Z,17.14
2023-03-27T11:44:33.532Z,17.18
2023-03-27T11:45:35.219Z,17.18
2023-03-27T11:46:37.043Z,17.20
2023-03-27T11:47:38.891Z,17.20
2023-03-27T11:48:40.748Z,17.20
2023-03-27T11:49:42.617Z,17.21
2023-03-27T11:50:44.515Z,17.23
2023-03-27T11:51:46.334Z,17.24
2023-03-27T11:52:48.149Z,17.24
2023-03-27T11:53:49.950Z,17.25
2023-03-27T11:54:51.806Z,17.26
2023-03-27T11:55:53.602Z,17.26
2023-03-27T11:56:55.453Z,17.26
2023-03-27T11:57:57.255Z,17.26
2023-03-27T11:58:59.054Z,17.27
2023-03-27T12:00:00.917Z,17.27
2023-03-27T12:01:02.724Z,17.29
2023-03-27T12:02:04.581Z,17.30
2023-03-27T12:03:06.519Z,17.30
2023-03-27T12:04:08.393Z,17.31
2023-03-27T12:05:10.294Z,17.32
2023-03-27T12:06:12.228Z,17.33
2023-03-27T12:07:15.417Z,17.34
2023-03-27T12:08:17.679Z,17.33
2023-03-27T12:09:19.544Z,17.32
2023-03-27T12:10:25.431Z,17.31
2023-03-27T12:11:24.973Z,17.31
2023-03-27T12:12:26.789Z,17.30
2023-03-27T12:13:38.715Z,17.31
2023-03-27T12:14:40.473Z,17.28
2023-03-27T12:15:35.891Z,17.30
2023-03-27T12:16:38.107Z,17.30
2023-03-27T12:17:40.124Z,17.30
2023-03-27T12:18:48.056Z,17.30
2023-03-27T12:19:45.679Z,17.30
2023-03-27T12:20:58.798Z,17.30
2023-03-27T12:21:51.152Z,17.30
2023-03-27T12:22:52.954Z,17.30
2023-03-27T12:23:54.660Z,17.30
2023-03-27T12:24:59.687Z,17.30
2023-03-27T12:26:00.037Z,17.30
2023-03-27T12:27:01.822Z,17.30
2023-03-27T12:28:03.656Z,17.30
2023-03-27T12:29:23.877Z,17.32
2023-03-27T12:30:10.578Z,17.32
2023-03-27T12:31:12.378Z,17.32
2023-03-27T12:32:14.235Z,17.32
2023-03-27T12:33:16.170Z,17.32
2023-03-27T12:34:18.131Z,17.31
2023-03-27T12:35:21.526Z,17.31
2023-03-27T12:36:23.645Z,17.31
2023-03-27T12:37:25.475Z,17.32
2023-03-27T12:38:27.286Z,17.32
2023-03-27T12:39:29.100Z,17.32
2023-03-27T12:40:31.001Z,17.32
2023-03-27T12:41:32.865Z,17.32
2023-03-27T12:42:34.680Z,17.32
2023-03-27T12:43:38.341Z,17.34
2023-03-27T12:44:40.140Z,17.36
2023-03-27T12:45:53.123Z,17.38
2023-03-27T12:46:45.708Z,17.38
2023-03-27T12:47:47.635Z,17.39
2023-03-27T12:48:49.367Z,17.39
2023-03-27T12:49:51.220Z,17.40
2023-03-27T12:50:53.468Z,17.41
2023-03-27T12:51:55.364Z,17.42
2023-03-27T12:52:57.251Z,17.43
2023-03-27T12:53:59.092Z,17.43
2023-03-27T12:55:00.911Z,17.44
2023-03-27T12:56:02.726Z,17.46
2023-03-27T12:57:05.009Z,17.47
2023-03-27T12:58:07.085Z,17.49
2023-03-27T12:59:08.961Z,17.52
2023-03-27T13:00:10.807Z,17.52
2023-03-27T13:01:12.632Z,17.54
2023-03-27T13:02:14.601Z,17.54
2023-03-27T13:03:16.612Z,17.56
2023-03-27T13:04:18.419Z,17.57
2023-03-27T13:05:26.770Z,17.58
2023-03-27T13:06:23.831Z,17.59
2023-03-27T13:07:25.693Z,17.59
2023-03-27T13:08:27.512Z,17.61
2023-03-27T13:09:29.335Z,17.62
2023-03-27T13:10:31.156Z,17.64
2023-03-27T13:11:32.932Z,17.63
2023-03-27T13:12:34.834Z,17.64
2023-03-27T13:13:36.663Z,17.65
2023-03-27T13:14:38.472Z,17.63
2023-03-27T13:15:40.339Z,17.65
2023-03-27T13:16:42.265Z,17.65
2023-03-27T13:17:44.212Z,17.66